Kezdőlap
METAR-TAF:

METAR-TAF

Repülőterek :

Bullhead City, Arizona, Amerikai Egyesült Államok

földrajzi szélesség: 35-09-27N, földrajzi hosszúság: 114-33-34W, magasság: 212 m

Jelenlegi meteorológiai megfigyelések

A jelentés 28 perccel ezelõtt készült, 05:15 UTC
Dél-délkeleti szél 19 kt
Hőmérséklet 33°C
Páratartalom 8%
Légköri nyomás 1006 hPa
Látótávolság: 16.1 km
Derült ég

METAR: KIFP 190515Z AUTO 16019KT 10SM CLR 33/M06 A2971 RMK AO2

Idő: 22:43 (05:43 UTC)

Előrejelzés

A jelentés 23 perccel ezelõtt készült, 05:20 UTC
Az előrejelzés 19-én 06 óra UTC és 20-én 06 óra UTC között érvényes
Dél-délkeleti szél 12 kt
Látótávolság: 10 km
Derült ég
19-én 0800 órától UTC szerint
Dél-délkeleti szél 7 kt
Látótávolság: 10 km
Derült ég
19-én 1900 órától UTC szerint
Déli szél 14 kt széllökések: 22 kt
Látótávolság: 10 km
Derült ég

TAF: KIFP 190520Z 1906/2006 16012KT P6SM SKC FM190800 16007KT P6SM SKC FM191900 18014G22KT P6SM SKC

Meteorológiai megfigyelések és előrejelzések több, mint 4000 repülőtéren (METAR és TAF jelentéseket).

A térképen piros és sárga pontok jelzik az elérhető meteorológiai állomásokat.

Mozgassa az egeret a pont fölött, hogy megjelenjen az állomás neve.

Azután kattintson az időjárási megfigyelések és előrejelzések megtekintéséhez.

A térkép megváltoztatása: kattintson a fekete keresztel jelölt zöld gombra ráközelítéshez, a vonallal jelölt zöld gombra távolításhoz, vagy a zöld nyilakra a szomszédos térképek eléréséhez.


METAR-TAF: